Merced, CA

7:59 PM PDT on September 14, 2014 (GMT -0700)
Modesto City-County-Sham | Change Station
CLOSE
Current Station
Airport
Location: Modesto,
Elevation: 95 ft
Nearby Weather Stations

Elev 95 ft 37.62 °N, 120.95 °W | Updated 6 minutes ago

Clear
Clear
86 °F
Feels Like 86 °F
N
9
Wind Variable Wind from NW

Today
High -- | Low -- °F
--% Chance of Precip.
Yesterday
High -- | Low -- °F
Precip. -- in
6:43 AM 7:10 PM
Waning Gibbous, 60% visible
Pressure 29.73 in
Visibility 10.0 miles
Clouds Clear
Dew Point 52 °F
Humidity 31%
Rainfall 0.00 in
Snow Depth 0 in , 1 in , 0 in
UV 0 out of 12
Pollen 6.90 out of 12
Air Quality Not available.
Flu Activity Not available.
METAR KMOD 150253Z 32008KT 10SM CLR 30/11 A2973 RMK AO2 SLP066 T03000111 53002 $

More Conditions Fewer Conditions

Pressure 29.73 in
Visibility 10.0 miles
Clouds Clear
Dew Point 52 °F
Humidity 31%
Rainfall 0.00 in
Snow Depth 0 in , 1 in , 0 in
UV 0 out of 12
Pollen 6.90 out of 12
Air Quality Not available.
Flu Activity Not available.
METAR KMOD 150253Z 32008KT 10SM CLR 30/11 A2973 RMK AO2 SLP066 T03000111 53002 $

More Conditions Fewer Conditions

10-Day Weather Forecast

Almanac

Astronomy

Sep. 14, 2014 Rise Set
Actual Time 6:43 AM PDT 7:10 PM PDT
Civil Twilight 6:17 AM PDT 7:37 PM PDT
Nautical Twilight 5:46 AM PDT 8:07 PM PDT
Astronomical Twilight 5:14 AM PDT 8:39 PM PDT
Moon 11:15 PM PDT (9/14) 12:46 PM PDT (9/14)
Length of Visible Light 13h 20m
Length of Day
12h 27m
Tomorrow will be 2m 21s shorter.
Waning Gibbous, 60% of the Moon is Illuminated
Today
Waning Gibbous
Sep 15
Last Quarter
Sep 24
New
Oct 1
First Quarter
Oct 8
Full

Today's Extremes

State Highs State Lows

Community

WunderPhotos

Upload Photos

1,753,385 photos uploaded!

Nearby

Air Quality

  Air Quality AQ Index Pollutant
Yesterday Unhealthy for Sensitive Groups
OZONE
Sunday Moderate
OZONE
Monday Moderate
OZONE
Tuesday Moderate
OZONE
Wednesday Moderate
OZONE
Thursday Moderate
OZONE
Friday Moderate
OZONE

Snow Depth

Station Depth Elevation
Leavitt Meadows 0 in 7200 ft
CSS Lab 1 in 6900 ft
Tahoe City Cross 0 in 6750 ft
Summit Meadow 1 in 9122 ft
Cedar Pass 0 in 7100 ft

Earthquake Activity

City Distance Mag. Time & Date
Ridgemark, California 62 miles 2.6 12:44 PM PDT
2014-09-12
Gonzales, California 62 miles 2.6 11:50 AM PDT
2014-09-11
Minimum magnitude displayed is 2.5.

Coastal Water Temperatures

Place Temperature
No Stations Reporting

Nearby Weather Stations